sensor_id;sensor_type;location;lat;lon;timestamp;P1;durP1;ratioP1;P2;durP2;ratioP2
35530;SDS011;21637;53.352;-6.356;2023-07-16T00:01:20;11.90;;;2.95;;
35530;SDS011;21637;53.352;-6.356;2023-07-16T00:03:46;9.85;;;2.70;;
35530;SDS011;21637;53.352;-6.356;2023-07-16T00:06:11;10.07;;;3.17;;
35530;SDS011;21637;53.352;-6.356;2023-07-16T00:08:37;12.25;;;3.40;;
35530;SDS011;21637;53.352;-6.356;2023-07-16T00:11:03;11.23;;;3.00;;
35530;SDS011;21637;53.352;-6.356;2023-07-16T00:13:29;8.55;;;3.17;;
35530;SDS011;21637;53.352;-6.356;2023-07-16T00:15:54;10.48;;;3.25;;
35530;SDS011;21637;53.352;-6.356;2023-07-16T00:18:20;11.10;;;3.30;;
35530;SDS011;21637;53.352;-6.356;2023-07-16T00:20:46;12.25;;;3.30;;
35530;SDS011;21637;53.352;-6.356;2023-07-16T00:23:11;10.75;;;3.17;;
35530;SDS011;21637;53.352;-6.356;2023-07-16T00:25:37;13.10;;;3.38;;
35530;SDS011;21637;53.352;-6.356;2023-07-16T00:28:03;8.73;;;2.78;;
35530;SDS011;21637;53.352;-6.356;2023-07-16T00:30:28;9.52;;;2.88;;
35530;SDS011;21637;53.352;-6.356;2023-07-16T00:32:54;12.13;;;3.25;;
35530;SDS011;21637;53.352;-6.356;2023-07-16T00:35:20;14.10;;;3.58;;
35530;SDS011;21637;53.352;-6.356;2023-07-16T00:37:46;14.38;;;3.33;;
35530;SDS011;21637;53.352;-6.356;2023-07-16T00:40:11;12.13;;;3.88;;
35530;SDS011;21637;53.352;-6.356;2023-07-16T00:42:38;15.35;;;3.45;;
35530;SDS011;21637;53.352;-6.356;2023-07-16T00:45:04;13.43;;;2.97;;
35530;SDS011;21637;53.352;-6.356;2023-07-16T00:47:36;14.25;;;3.75;;
35530;SDS011;21637;53.352;-6.356;2023-07-16T00:50:02;11.50;;;3.13;;
35530;SDS011;21637;53.352;-6.356;2023-07-16T00:52:28;8.43;;;3.10;;
35530;SDS011;21637;53.352;-6.356;2023-07-16T00:54:54;13.10;;;3.58;;
35530;SDS011;21637;53.352;-6.356;2023-07-16T00:57:19;14.38;;;2.80;;
35530;SDS011;21637;53.352;-6.356;2023-07-16T00:59:45;10.45;;;3.00;;
35530;SDS011;21637;53.352;-6.356;2023-07-16T01:02:11;10.07;;;3.33;;
35530;SDS011;21637;53.352;-6.356;2023-07-16T01:04:36;11.07;;;3.22;;
35530;SDS011;21637;53.352;-6.356;2023-07-16T01:07:04;12.88;;;3.47;;
35530;SDS011;21637;53.352;-6.356;2023-07-16T01:09:31;10.73;;;2.85;;
35530;SDS011;21637;53.352;-6.356;2023-07-16T01:11:58;13.80;;;3.45;;
35530;SDS011;21637;53.352;-6.356;2023-07-16T01:14:26;12.68;;;4.38;;
35530;SDS011;21637;53.352;-6.356;2023-07-16T01:16:52;12.88;;;3.53;;
35530;SDS011;21637;53.352;-6.356;2023-07-16T01:19:23;11.25;;;3.22;;
35530;SDS011;21637;53.352;-6.356;2023-07-16T01:24:57;11.27;;;3.20;;
35530;SDS011;21637;53.352;-6.356;2023-07-16T01:33:03;10.40;;;2.75;;
35530;SDS011;21637;53.352;-6.356;2023-07-16T01:35:29;11.00;;;2.90;;
35530;SDS011;21637;53.352;-6.356;2023-07-16T01:37:55;9.35;;;2.78;;
35530;SDS011;21637;53.352;-6.356;2023-07-16T01:40:21;9.80;;;2.95;;
35530;SDS011;21637;53.352;-6.356;2023-07-16T01:42:47;10.45;;;3.10;;
35530;SDS011;21637;53.352;-6.356;2023-07-16T01:45:12;8.93;;;3.03;;
35530;SDS011;21637;53.352;-6.356;2023-07-16T01:50:28;10.85;;;2.65;;
35530;SDS011;21637;53.352;-6.356;2023-07-16T01:52:54;10.07;;;2.50;;
35530;SDS011;21637;53.352;-6.356;2023-07-16T01:55:19;7.72;;;2.33;;
35530;SDS011;21637;53.352;-6.356;2023-07-16T01:57:45;10.70;;;2.60;;
35530;SDS011;21637;53.352;-6.356;2023-07-16T02:00:11;11.63;;;2.45;;
35530;SDS011;21637;53.352;-6.356;2023-07-16T02:02:36;12.15;;;3.10;;
35530;SDS011;21637;53.352;-6.356;2023-07-16T02:05:02;11.23;;;2.53;;
35530;SDS011;21637;53.352;-6.356;2023-07-16T02:07:28;9.65;;;2.90;;
35530;SDS011;21637;53.352;-6.356;2023-07-16T02:09:54;9.93;;;2.92;;
35530;SDS011;21637;53.352;-6.356;2023-07-16T02:12:20;10.52;;;3.05;;
35530;SDS011;21637;53.352;-6.356;2023-07-16T02:14:45;7.90;;;2.50;;
35530;SDS011;21637;53.352;-6.356;2023-07-16T02:17:11;13.02;;;2.78;;
35530;SDS011;21637;53.352;-6.356;2023-07-16T02:19:37;9.85;;;2.63;;
35530;SDS011;21637;53.352;-6.356;2023-07-16T02:22:02;7.55;;;2.42;;
35530;SDS011;21637;53.352;-6.356;2023-07-16T02:24:28;8.95;;;2.47;;
35530;SDS011;21637;53.352;-6.356;2023-07-16T02:26:54;8.05;;;2.60;;
35530;SDS011;21637;53.352;-6.356;2023-07-16T02:29:19;6.97;;;2.30;;
35530;SDS011;21637;53.352;-6.356;2023-07-16T02:31:45;8.77;;;2.72;;
35530;SDS011;21637;53.352;-6.356;2023-07-16T02:34:13;9.02;;;2.55;;
35530;SDS011;21637;53.352;-6.356;2023-07-16T02:36:39;10.15;;;2.40;;
35530;SDS011;21637;53.352;-6.356;2023-07-16T02:39:04;11.05;;;2.35;;
35530;SDS011;21637;53.352;-6.356;2023-07-16T02:41:30;10.38;;;2.88;;
35530;SDS011;21637;53.352;-6.356;2023-07-16T02:43:59;8.40;;;2.95;;
35530;SDS011;21637;53.352;-6.356;2023-07-16T02:46:26;7.45;;;2.20;;
35530;SDS011;21637;53.352;-6.356;2023-07-16T02:48:52;8.65;;;2.47;;
35530;SDS011;21637;53.352;-6.356;2023-07-16T02:51:18;9.60;;;2.40;;
35530;SDS011;21637;53.352;-6.356;2023-07-16T02:53:43;14.32;;;2.90;;
35530;SDS011;21637;53.352;-6.356;2023-07-16T02:56:09;8.77;;;2.58;;
35530;SDS011;21637;53.352;-6.356;2023-07-16T02:58:35;5.57;;;2.50;;
35530;SDS011;21637;53.352;-6.356;2023-07-16T03:01:01;7.93;;;2.33;;
35530;SDS011;21637;53.352;-6.356;2023-07-16T03:03:26;7.85;;;2.47;;
35530;SDS011;21637;53.352;-6.356;2023-07-16T03:05:52;11.90;;;2.50;;
35530;SDS011;21637;53.352;-6.356;2023-07-16T03:08:18;17.35;;;2.90;;
35530;SDS011;21637;53.352;-6.356;2023-07-16T03:10:44;7.55;;;2.90;;
35530;SDS011;21637;53.352;-6.356;2023-07-16T03:13:10;10.70;;;2.85;;
35530;SDS011;21637;53.352;-6.356;2023-07-16T03:15:35;8.90;;;2.90;;
35530;SDS011;21637;53.352;-6.356;2023-07-16T03:18:01;10.43;;;2.80;;
35530;SDS011;21637;53.352;-6.356;2023-07-16T03:20:28;10.82;;;2.90;;
35530;SDS011;21637;53.352;-6.356;2023-07-16T03:22:54;10.85;;;2.58;;
35530;SDS011;21637;53.352;-6.356;2023-07-16T03:25:19;7.03;;;2.38;;
35530;SDS011;21637;53.352;-6.356;2023-07-16T03:27:45;7.50;;;2.58;;
35530;SDS011;21637;53.352;-6.356;2023-07-16T03:30:11;9.32;;;2.80;;
35530;SDS011;21637;53.352;-6.356;2023-07-16T03:32:37;10.77;;;2.83;;
35530;SDS011;21637;53.352;-6.356;2023-07-16T03:35:02;8.05;;;2.63;;
35530;SDS011;21637;53.352;-6.356;2023-07-16T03:37:28;10.25;;;2.50;;
35530;SDS011;21637;53.352;-6.356;2023-07-16T03:39:54;11.27;;;2.67;;
35530;SDS011;21637;53.352;-6.356;2023-07-16T03:42:19;6.70;;;2.22;;
35530;SDS011;21637;53.352;-6.356;2023-07-16T03:44:47;10.98;;;2.50;;
35530;SDS011;21637;53.352;-6.356;2023-07-16T03:47:13;6.70;;;2.50;;
35530;SDS011;21637;53.352;-6.356;2023-07-16T03:49:38;8.73;;;2.17;;
35530;SDS011;21637;53.352;-6.356;2023-07-16T03:52:05;11.15;;;2.65;;
35530;SDS011;21637;53.352;-6.356;2023-07-16T03:54:31;8.27;;;2.60;;
35530;SDS011;21637;53.352;-6.356;2023-07-16T03:56:56;9.25;;;2.58;;
35530;SDS011;21637;53.352;-6.356;2023-07-16T03:59:22;8.10;;;2.30;;
35530;SDS011;21637;53.352;-6.356;2023-07-16T04:01:48;9.13;;;2.10;;
35530;SDS011;21637;53.352;-6.356;2023-07-16T04:04:13;8.02;;;2.20;;
35530;SDS011;21637;53.352;-6.356;2023-07-16T04:06:39;7.25;;;2.33;;
35530;SDS011;21637;53.352;-6.356;2023-07-16T04:09:05;7.82;;;2.17;;
35530;SDS011;21637;53.352;-6.356;2023-07-16T04:11:30;10.60;;;2.53;;
35530;SDS011;21637;53.352;-6.356;2023-07-16T04:13:56;6.68;;;1.90;;
35530;SDS011;21637;53.352;-6.356;2023-07-16T04:16:22;8.63;;;2.22;;
35530;SDS011;21637;53.352;-6.356;2023-07-16T04:18:47;6.53;;;2.10;;
35530;SDS011;21637;53.352;-6.356;2023-07-16T04:21:13;5.60;;;1.80;;
35530;SDS011;21637;53.352;-6.356;2023-07-16T04:23:39;2.90;;;1.90;;
35530;SDS011;21637;53.352;-6.356;2023-07-16T04:26:04;5.68;;;1.80;;
35530;SDS011;21637;53.352;-6.356;2023-07-16T04:28:30;4.93;;;2.15;;
35530;SDS011;21637;53.352;-6.356;2023-07-16T04:30:56;5.32;;;1.88;;
35530;SDS011;21637;53.352;-6.356;2023-07-16T04:33:21;4.50;;;1.92;;
35530;SDS011;21637;53.352;-6.356;2023-07-16T04:35:47;7.32;;;2.60;;
35530;SDS011;21637;53.352;-6.356;2023-07-16T04:38:13;5.45;;;2.03;;
35530;SDS011;21637;53.352;-6.356;2023-07-16T04:40:39;7.88;;;2.10;;
35530;SDS011;21637;53.352;-6.356;2023-07-16T04:43:06;4.65;;;1.85;;
35530;SDS011;21637;53.352;-6.356;2023-07-16T04:45:31;5.25;;;1.73;;
35530;SDS011;21637;53.352;-6.356;2023-07-16T04:47:57;3.42;;;1.73;;
35530;SDS011;21637;53.352;-6.356;2023-07-16T04:50:24;6.75;;;1.73;;
35530;SDS011;21637;53.352;-6.356;2023-07-16T04:52:49;7.32;;;1.75;;
35530;SDS011;21637;53.352;-6.356;2023-07-16T04:55:15;8.40;;;1.80;;
35530;SDS011;21637;53.352;-6.356;2023-07-16T04:57:41;11.18;;;1.95;;
35530;SDS011;21637;53.352;-6.356;2023-07-16T05:00:07;6.65;;;1.60;;
35530;SDS011;21637;53.352;-6.356;2023-07-16T05:02:33;4.43;;;1.50;;
35530;SDS011;21637;53.352;-6.356;2023-07-16T05:04:58;5.00;;;2.00;;
35530;SDS011;21637;53.352;-6.356;2023-07-16T05:07:24;3.53;;;1.58;;
35530;SDS011;21637;53.352;-6.356;2023-07-16T05:09:50;7.57;;;1.95;;
35530;SDS011;21637;53.352;-6.356;2023-07-16T05:12:15;4.50;;;1.63;;
35530;SDS011;21637;53.352;-6.356;2023-07-16T05:14:45;4.68;;;1.90;;
35530;SDS011;21637;53.352;-6.356;2023-07-16T05:17:13;7.68;;;1.88;;
35530;SDS011;21637;53.352;-6.356;2023-07-16T05:19:39;5.03;;;1.58;;
35530;SDS011;21637;53.352;-6.356;2023-07-16T05:22:05;6.07;;;1.92;;
35530;SDS011;21637;53.352;-6.356;2023-07-16T05:24:31;6.45;;;2.13;;
35530;SDS011;21637;53.352;-6.356;2023-07-16T05:26:57;5.63;;;1.80;;
35530;SDS011;21637;53.352;-6.356;2023-07-16T05:29:23;7.00;;;2.05;;
35530;SDS011;21637;53.352;-6.356;2023-07-16T05:31:49;6.85;;;1.92;;
35530;SDS011;21637;53.352;-6.356;2023-07-16T05:34:14;9.05;;;1.92;;
35530;SDS011;21637;53.352;-6.356;2023-07-16T05:36:41;6.97;;;1.63;;
35530;SDS011;21637;53.352;-6.356;2023-07-16T05:39:09;4.85;;;1.40;;
35530;SDS011;21637;53.352;-6.356;2023-07-16T05:41:38;5.43;;;1.63;;
35530;SDS011;21637;53.352;-6.356;2023-07-16T05:44:04;4.72;;;1.63;;
35530;SDS011;21637;53.352;-6.356;2023-07-16T05:46:30;10.35;;;2.40;;
35530;SDS011;21637;53.352;-6.356;2023-07-16T05:48:56;5.47;;;1.70;;
35530;SDS011;21637;53.352;-6.356;2023-07-16T05:51:21;5.50;;;1.85;;
35530;SDS011;21637;53.352;-6.356;2023-07-16T05:53:47;3.97;;;1.67;;
35530;SDS011;21637;53.352;-6.356;2023-07-16T05:56:13;5.47;;;1.83;;
35530;SDS011;21637;53.352;-6.356;2023-07-16T05:58:39;5.57;;;1.40;;
35530;SDS011;21637;53.352;-6.356;2023-07-16T06:01:06;5.57;;;2.30;;
35530;SDS011;21637;53.352;-6.356;2023-07-16T06:03:32;7.03;;;1.98;;
35530;SDS011;21637;53.352;-6.356;2023-07-16T06:05:57;4.75;;;1.73;;
35530;SDS011;21637;53.352;-6.356;2023-07-16T06:08:23;8.60;;;2.20;;
35530;SDS011;21637;53.352;-6.356;2023-07-16T06:10:50;5.97;;;1.60;;
35530;SDS011;21637;53.352;-6.356;2023-07-16T06:13:16;7.93;;;1.80;;
35530;SDS011;21637;53.352;-6.356;2023-07-16T06:15:42;7.13;;;1.98;;
35530;SDS011;21637;53.352;-6.356;2023-07-16T06:18:08;8.55;;;1.92;;
35530;SDS011;21637;53.352;-6.356;2023-07-16T06:20:34;6.78;;;1.92;;
35530;SDS011;21637;53.352;-6.356;2023-07-16T06:23:00;8.52;;;2.17;;
35530;SDS011;21637;53.352;-6.356;2023-07-16T06:25:25;6.07;;;1.65;;
35530;SDS011;21637;53.352;-6.356;2023-07-16T06:27:51;5.07;;;1.35;;
35530;SDS011;21637;53.352;-6.356;2023-07-16T06:30:17;5.07;;;1.92;;
35530;SDS011;21637;53.352;-6.356;2023-07-16T06:32:43;5.47;;;1.60;;
35530;SDS011;21637;53.352;-6.356;2023-07-16T06:35:08;8.38;;;1.55;;
35530;SDS011;21637;53.352;-6.356;2023-07-16T06:37:34;6.65;;;2.22;;
35530;SDS011;21637;53.352;-6.356;2023-07-16T06:40:00;7.47;;;1.83;;
35530;SDS011;21637;53.352;-6.356;2023-07-16T06:42:25;5.50;;;1.60;;
35530;SDS011;21637;53.352;-6.356;2023-07-16T06:44:51;6.53;;;1.77;;
35530;SDS011;21637;53.352;-6.356;2023-07-16T06:47:17;4.95;;;1.70;;
35530;SDS011;21637;53.352;-6.356;2023-07-16T06:49:42;7.70;;;1.90;;
35530;SDS011;21637;53.352;-6.356;2023-07-16T06:52:17;6.10;;;1.80;;
35530;SDS011;21637;53.352;-6.356;2023-07-16T06:54:44;6.72;;;1.75;;
35530;SDS011;21637;53.352;-6.356;2023-07-16T06:57:10;5.75;;;1.92;;
35530;SDS011;21637;53.352;-6.356;2023-07-16T06:59:35;4.68;;;1.60;;
35530;SDS011;21637;53.352;-6.356;2023-07-16T07:02:01;7.13;;;1.80;;
35530;SDS011;21637;53.352;-6.356;2023-07-16T07:04:27;4.40;;;1.60;;
35530;SDS011;21637;53.352;-6.356;2023-07-16T07:06:52;5.35;;;1.20;;
35530;SDS011;21637;53.352;-6.356;2023-07-16T07:09:18;4.90;;;1.75;;
35530;SDS011;21637;53.352;-6.356;2023-07-16T07:11:44;2.40;;;1.40;;
35530;SDS011;21637;53.352;-6.356;2023-07-16T07:14:09;6.20;;;1.70;;
35530;SDS011;21637;53.352;-6.356;2023-07-16T07:16:35;4.65;;;1.95;;
35530;SDS011;21637;53.352;-6.356;2023-07-16T07:19:01;4.20;;;1.50;;
35530;SDS011;21637;53.352;-6.356;2023-07-16T07:21:27;3.08;;;1.58;;
35530;SDS011;21637;53.352;-6.356;2023-07-16T07:23:53;3.42;;;1.42;;
35530;SDS011;21637;53.352;-6.356;2023-07-16T07:26:19;6.45;;;1.88;;
35530;SDS011;21637;53.352;-6.356;2023-07-16T07:28:44;10.73;;;2.05;;
35530;SDS011;21637;53.352;-6.356;2023-07-16T07:31:10;5.95;;;2.08;;
35530;SDS011;21637;53.352;-6.356;2023-07-16T07:33:36;8.35;;;2.28;;
35530;SDS011;21637;53.352;-6.356;2023-07-16T07:36:01;9.02;;;2.15;;
35530;SDS011;21637;53.352;-6.356;2023-07-16T07:38:27;11.93;;;2.65;;
35530;SDS011;21637;53.352;-6.356;2023-07-16T07:40:53;5.38;;;1.92;;
35530;SDS011;21637;53.352;-6.356;2023-07-16T07:43:19;8.75;;;2.13;;
35530;SDS011;21637;53.352;-6.356;2023-07-16T07:45:45;5.57;;;1.85;;
35530;SDS011;21637;53.352;-6.356;2023-07-16T07:48:10;7.47;;;1.80;;
35530;SDS011;21637;53.352;-6.356;2023-07-16T07:50:36;6.43;;;1.95;;
35530;SDS011;21637;53.352;-6.356;2023-07-16T07:53:02;9.57;;;2.40;;
35530;SDS011;21637;53.352;-6.356;2023-07-16T07:55:27;5.50;;;1.95;;
35530;SDS011;21637;53.352;-6.356;2023-07-16T07:57:53;4.20;;;1.95;;
35530;SDS011;21637;53.352;-6.356;2023-07-16T08:00:19;7.93;;;2.15;;
35530;SDS011;21637;53.352;-6.356;2023-07-16T08:02:45;6.30;;;1.90;;
35530;SDS011;21637;53.352;-6.356;2023-07-16T08:05:11;6.97;;;2.38;;
35530;SDS011;21637;53.352;-6.356;2023-07-16T08:07:36;6.85;;;1.92;;
35530;SDS011;21637;53.352;-6.356;2023-07-16T08:10:02;7.32;;;2.30;;
35530;SDS011;21637;53.352;-6.356;2023-07-16T08:12:28;11.25;;;2.58;;
35530;SDS011;21637;53.352;-6.356;2023-07-16T08:14:55;12.13;;;2.70;;
35530;SDS011;21637;53.352;-6.356;2023-07-16T08:17:23;12.23;;;2.47;;
35530;SDS011;21637;53.352;-6.356;2023-07-16T08:19:48;8.75;;;2.70;;
35530;SDS011;21637;53.352;-6.356;2023-07-16T08:22:14;14.60;;;3.08;;
35530;SDS011;21637;53.352;-6.356;2023-07-16T08:24:40;7.80;;;2.75;;
35530;SDS011;21637;53.352;-6.356;2023-07-16T08:27:05;10.38;;;2.88;;
35530;SDS011;21637;53.352;-6.356;2023-07-16T08:29:31;7.80;;;2.50;;
35530;SDS011;21637;53.352;-6.356;2023-07-16T08:31:57;6.70;;;2.38;;
35530;SDS011;21637;53.352;-6.356;2023-07-16T08:34:22;9.30;;;2.60;;
35530;SDS011;21637;53.352;-6.356;2023-07-16T08:36:48;8.65;;;2.33;;
35530;SDS011;21637;53.352;-6.356;2023-07-16T08:39:14;10.85;;;3.33;;
35530;SDS011;21637;53.352;-6.356;2023-07-16T08:41:40;11.07;;;2.67;;
35530;SDS011;21637;53.352;-6.356;2023-07-16T08:44:06;9.77;;;2.30;;
35530;SDS011;21637;53.352;-6.356;2023-07-16T08:46:31;8.02;;;2.10;;
35530;SDS011;21637;53.352;-6.356;2023-07-16T08:48:57;8.02;;;2.22;;
35530;SDS011;21637;53.352;-6.356;2023-07-16T08:51:25;5.20;;;1.73;;
35530;SDS011;21637;53.352;-6.356;2023-07-16T08:53:51;8.77;;;2.13;;
35530;SDS011;21637;53.352;-6.356;2023-07-16T08:56:17;10.18;;;2.45;;
35530;SDS011;21637;53.352;-6.356;2023-07-16T08:58:43;5.68;;;2.08;;
35530;SDS011;21637;53.352;-6.356;2023-07-16T09:01:10;6.30;;;1.92;;
35530;SDS011;21637;53.352;-6.356;2023-07-16T09:03:37;8.32;;;2.08;;
35530;SDS011;21637;53.352;-6.356;2023-07-16T09:06:04;5.43;;;2.03;;
35530;SDS011;21637;53.352;-6.356;2023-07-16T09:08:30;7.15;;;1.88;;
35530;SDS011;21637;53.352;-6.356;2023-07-16T09:10:56;7.03;;;1.67;;
35530;SDS011;21637;53.352;-6.356;2023-07-16T09:13:25;7.90;;;2.35;;
35530;SDS011;21637;53.352;-6.356;2023-07-16T09:15:54;8.80;;;2.60;;
35530;SDS011;21637;53.352;-6.356;2023-07-16T09:18:21;8.77;;;2.10;;
35530;SDS011;21637;53.352;-6.356;2023-07-16T09:20:48;7.30;;;1.67;;
35530;SDS011;21637;53.352;-6.356;2023-07-16T09:23:19;9.65;;;1.70;;
35530;SDS011;21637;53.352;-6.356;2023-07-16T09:25:45;6.20;;;1.90;;
35530;SDS011;21637;53.352;-6.356;2023-07-16T09:28:11;6.97;;;1.58;;
35530;SDS011;21637;53.352;-6.356;2023-07-16T09:30:37;10.13;;;1.67;;
35530;SDS011;21637;53.352;-6.356;2023-07-16T09:35:48;5.90;;;2.08;;
35530;SDS011;21637;53.352;-6.356;2023-07-16T09:38:14;6.03;;;1.80;;
35530;SDS011;21637;53.352;-6.356;2023-07-16T09:40:42;5.68;;;1.60;;
35530;SDS011;21637;53.352;-6.356;2023-07-16T09:43:08;8.05;;;2.00;;
35530;SDS011;21637;53.352;-6.356;2023-07-16T09:45:34;4.47;;;1.60;;
35530;SDS011;21637;53.352;-6.356;2023-07-16T09:48:01;6.28;;;2.00;;
35530;SDS011;21637;53.352;-6.356;2023-07-16T09:50:28;3.95;;;1.52;;
35530;SDS011;21637;53.352;-6.356;2023-07-16T09:52:56;5.85;;;2.10;;
35530;SDS011;21637;53.352;-6.356;2023-07-16T09:55:23;9.90;;;1.55;;
35530;SDS011;21637;53.352;-6.356;2023-07-16T09:57:50;5.57;;;1.85;;
35530;SDS011;21637;53.352;-6.356;2023-07-16T10:00:21;6.13;;;2.00;;
35530;SDS011;21637;53.352;-6.356;2023-07-16T10:02:49;5.10;;;1.70;;
35530;SDS011;21637;53.352;-6.356;2023-07-16T10:05:26;9.00;;;1.83;;
35530;SDS011;21637;53.352;-6.356;2023-07-16T10:07:57;7.68;;;1.90;;
35530;SDS011;21637;53.352;-6.356;2023-07-16T10:10:37;8.05;;;1.67;;
35530;SDS011;21637;53.352;-6.356;2023-07-16T10:13:06;4.55;;;1.90;;
35530;SDS011;21637;53.352;-6.356;2023-07-16T10:15:33;7.85;;;1.90;;
35530;SDS011;21637;53.352;-6.356;2023-07-16T10:17:59;7.13;;;1.70;;
35530;SDS011;21637;53.352;-6.356;2023-07-16T10:20:31;6.15;;;1.83;;
35530;SDS011;21637;53.352;-6.356;2023-07-16T10:22:59;4.72;;;1.38;;
35530;SDS011;21637;53.352;-6.356;2023-07-16T10:25:37;4.93;;;1.30;;
35530;SDS011;21637;53.352;-6.356;2023-07-16T10:28:02;5.47;;;1.55;;
35530;SDS011;21637;53.352;-6.356;2023-07-16T10:30:28;5.78;;;1.95;;
35530;SDS011;21637;53.352;-6.356;2023-07-16T10:32:55;5.00;;;1.50;;
35530;SDS011;21637;53.352;-6.356;2023-07-16T10:35:20;6.70;;;1.88;;
35530;SDS011;21637;53.352;-6.356;2023-07-16T10:37:46;4.70;;;1.95;;
35530;SDS011;21637;53.352;-6.356;2023-07-16T10:40:13;5.45;;;1.83;;
35530;SDS011;21637;53.352;-6.356;2023-07-16T10:42:43;5.63;;;1.40;;
35530;SDS011;21637;53.352;-6.356;2023-07-16T10:45:09;5.70;;;1.80;;
35530;SDS011;21637;53.352;-6.356;2023-07-16T10:47:40;5.53;;;1.65;;
35530;SDS011;21637;53.352;-6.356;2023-07-16T10:50:18;4.03;;;1.60;;
35530;SDS011;21637;53.352;-6.356;2023-07-16T10:52:44;5.80;;;1.77;;
35530;SDS011;21637;53.352;-6.356;2023-07-16T10:55:10;3.70;;;1.48;;
35530;SDS011;21637;53.352;-6.356;2023-07-16T10:57:36;5.53;;;1.70;;
35530;SDS011;21637;53.352;-6.356;2023-07-16T11:00:02;5.50;;;2.13;;
35530;SDS011;21637;53.352;-6.356;2023-07-16T11:02:28;7.10;;;1.77;;
35530;SDS011;21637;53.352;-6.356;2023-07-16T11:04:54;3.67;;;1.85;;
35530;SDS011;21637;53.352;-6.356;2023-07-16T11:07:22;9.57;;;1.88;;
35530;SDS011;21637;53.352;-6.356;2023-07-16T11:09:51;4.32;;;1.90;;
35530;SDS011;21637;53.352;-6.356;2023-07-16T11:12:22;3.83;;;1.45;;
35530;SDS011;21637;53.352;-6.356;2023-07-16T11:14:52;4.53;;;1.45;;
35530;SDS011;21637;53.352;-6.356;2023-07-16T11:17:19;4.32;;;1.63;;
35530;SDS011;21637;53.352;-6.356;2023-07-16T11:19:48;7.85;;;1.98;;
35530;SDS011;21637;53.352;-6.356;2023-07-16T11:22:15;6.70;;;1.63;;
35530;SDS011;21637;53.352;-6.356;2023-07-16T11:24:41;5.18;;;1.60;;
35530;SDS011;21637;53.352;-6.356;2023-07-16T11:27:13;6.03;;;1.92;;
35530;SDS011;21637;53.352;-6.356;2023-07-16T11:29:40;5.20;;;1.70;;
35530;SDS011;21637;53.352;-6.356;2023-07-16T11:35:04;4.90;;;1.42;;
35530;SDS011;21637;53.352;-6.356;2023-07-16T11:37:32;4.55;;;1.60;;
35530;SDS011;21637;53.352;-6.356;2023-07-16T11:40:03;5.45;;;1.60;;
35530;SDS011;21637;53.352;-6.356;2023-07-16T11:42:31;5.05;;;1.70;;
35530;SDS011;21637;53.352;-6.356;2023-07-16T11:45:02;6.30;;;1.50;;
35530;SDS011;21637;53.352;-6.356;2023-07-16T11:47:28;5.22;;;1.40;;
35530;SDS011;21637;53.352;-6.356;2023-07-16T11:49:55;5.60;;;1.50;;
35530;SDS011;21637;53.352;-6.356;2023-07-16T11:52:27;6.10;;;1.77;;
35530;SDS011;21637;53.352;-6.356;2023-07-16T11:54:54;5.95;;;1.88;;
35530;SDS011;21637;53.352;-6.356;2023-07-16T11:57:22;6.07;;;1.80;;
35530;SDS011;21637;53.352;-6.356;2023-07-16T11:59:48;8.70;;;2.00;;
35530;SDS011;21637;53.352;-6.356;2023-07-16T12:02:14;4.72;;;1.98;;
35530;SDS011;21637;53.352;-6.356;2023-07-16T12:04:40;5.57;;;2.40;;
35530;SDS011;21637;53.352;-6.356;2023-07-16T12:07:06;8.43;;;2.30;;
35530;SDS011;21637;53.352;-6.356;2023-07-16T12:09:32;4.70;;;1.55;;
35530;SDS011;21637;53.352;-6.356;2023-07-16T12:11:59;6.40;;;1.95;;
35530;SDS011;21637;53.352;-6.356;2023-07-16T12:14:25;6.57;;;1.60;;
35530;SDS011;21637;53.352;-6.356;2023-07-16T12:16:51;5.70;;;1.80;;
35530;SDS011;21637;53.352;-6.356;2023-07-16T12:19:17;4.45;;;1.30;;
35530;SDS011;21637;53.352;-6.356;2023-07-16T12:21:43;2.78;;;1.30;;
35530;SDS011;21637;53.352;-6.356;2023-07-16T12:24:08;3.53;;;1.30;;
35530;SDS011;21637;53.352;-6.356;2023-07-16T12:26:35;3.60;;;1.45;;
35530;SDS011;21637;53.352;-6.356;2023-07-16T12:29:00;5.13;;;1.90;;
35530;SDS011;21637;53.352;-6.356;2023-07-16T12:31:33;3.75;;;1.30;;
35530;SDS011;21637;53.352;-6.356;2023-07-16T12:34:00;7.38;;;1.73;;
35530;SDS011;21637;53.352;-6.356;2023-07-16T12:36:29;5.18;;;2.00;;
35530;SDS011;21637;53.352;-6.356;2023-07-16T12:38:55;6.72;;;1.70;;
35530;SDS011;21637;53.352;-6.356;2023-07-16T12:41:21;3.90;;;1.38;;
35530;SDS011;21637;53.352;-6.356;2023-07-16T12:43:47;8.73;;;1.67;;
35530;SDS011;21637;53.352;-6.356;2023-07-16T12:46:13;7.38;;;1.40;;
35530;SDS011;21637;53.352;-6.356;2023-07-16T12:48:38;5.53;;;1.27;;
35530;SDS011;21637;53.352;-6.356;2023-07-16T12:51:04;4.72;;;1.48;;
35530;SDS011;21637;53.352;-6.356;2023-07-16T12:53:30;3.85;;;1.10;;
35530;SDS011;21637;53.352;-6.356;2023-07-16T12:55:56;5.07;;;1.38;;
35530;SDS011;21637;53.352;-6.356;2023-07-16T12:58:21;4.93;;;1.50;;
35530;SDS011;21637;53.352;-6.356;2023-07-16T13:00:47;6.40;;;1.52;;
35530;SDS011;21637;53.352;-6.356;2023-07-16T13:03:13;3.22;;;1.50;;
35530;SDS011;21637;53.352;-6.356;2023-07-16T13:05:41;4.22;;;1.50;;
35530;SDS011;21637;53.352;-6.356;2023-07-16T13:08:12;5.93;;;1.67;;
35530;SDS011;21637;53.352;-6.356;2023-07-16T13:10:38;3.67;;;1.75;;
35530;SDS011;21637;53.352;-6.356;2023-07-16T13:13:05;3.65;;;1.23;;
35530;SDS011;21637;53.352;-6.356;2023-07-16T13:15:32;4.25;;;1.05;;
35530;SDS011;21637;53.352;-6.356;2023-07-16T13:17:58;3.33;;;1.25;;
35530;SDS011;21637;53.352;-6.356;2023-07-16T13:20:23;2.75;;;0.90;;
35530;SDS011;21637;53.352;-6.356;2023-07-16T13:22:49;2.90;;;1.20;;
35530;SDS011;21637;53.352;-6.356;2023-07-16T13:25:15;3.85;;;1.23;;
35530;SDS011;21637;53.352;-6.356;2023-07-16T13:27:41;4.38;;;1.20;;
35530;SDS011;21637;53.352;-6.356;2023-07-16T13:30:07;7.72;;;1.55;;
35530;SDS011;21637;53.352;-6.356;2023-07-16T13:32:33;4.88;;;1.58;;
35530;SDS011;21637;53.352;-6.356;2023-07-16T13:34:59;2.88;;;1.38;;
35530;SDS011;21637;53.352;-6.356;2023-07-16T13:37:25;1.90;;;1.20;;
35530;SDS011;21637;53.352;-6.356;2023-07-16T13:39:50;3.63;;;1.52;;
35530;SDS011;21637;53.352;-6.356;2023-07-16T13:42:16;3.67;;;1.95;;
35530;SDS011;21637;53.352;-6.356;2023-07-16T13:44:42;3.80;;;1.45;;
35530;SDS011;21637;53.352;-6.356;2023-07-16T13:47:07;2.63;;;1.42;;
35530;SDS011;21637;53.352;-6.356;2023-07-16T13:49:33;2.65;;;1.40;;
35530;SDS011;21637;53.352;-6.356;2023-07-16T13:51:59;1.83;;;1.38;;
35530;SDS011;21637;53.352;-6.356;2023-07-16T13:54:24;6.18;;;1.60;;
35530;SDS011;21637;53.352;-6.356;2023-07-16T13:56:50;4.03;;;1.70;;
35530;SDS011;21637;53.352;-6.356;2023-07-16T13:59:16;4.35;;;1.50;;
35530;SDS011;21637;53.352;-6.356;2023-07-16T14:01:41;3.63;;;1.70;;
35530;SDS011;21637;53.352;-6.356;2023-07-16T14:04:07;3.00;;;1.77;;
35530;SDS011;21637;53.352;-6.356;2023-07-16T14:06:33;6.80;;;1.90;;
35530;SDS011;21637;53.352;-6.356;2023-07-16T14:08:59;2.70;;;1.65;;
35530;SDS011;21637;53.352;-6.356;2023-07-16T14:11:25;4.90;;;1.95;;
35530;SDS011;21637;53.352;-6.356;2023-07-16T14:13:51;7.05;;;2.15;;
35530;SDS011;21637;53.352;-6.356;2023-07-16T14:16:18;3.90;;;1.88;;
35530;SDS011;21637;53.352;-6.356;2023-07-16T14:18:44;5.90;;;2.00;;
35530;SDS011;21637;53.352;-6.356;2023-07-16T14:21:10;3.67;;;2.03;;
35530;SDS011;21637;53.352;-6.356;2023-07-16T14:23:36;5.90;;;2.10;;
35530;SDS011;21637;53.352;-6.356;2023-07-16T14:26:02;4.35;;;2.00;;
35530;SDS011;21637;53.352;-6.356;2023-07-16T14:28:28;5.13;;;2.13;;
35530;SDS011;21637;53.352;-6.356;2023-07-16T14:30:54;4.13;;;2.03;;
35530;SDS011;21637;53.352;-6.356;2023-07-16T14:33:20;3.03;;;1.80;;
35530;SDS011;21637;53.352;-6.356;2023-07-16T14:35:46;3.63;;;1.70;;
35530;SDS011;21637;53.352;-6.356;2023-07-16T14:38:12;5.22;;;2.00;;
35530;SDS011;21637;53.352;-6.356;2023-07-16T14:40:37;2.53;;;1.70;;
35530;SDS011;21637;53.352;-6.356;2023-07-16T14:43:04;2.90;;;1.83;;